sensor_id;sensor_type;location;lat;lon;timestamp;P1;durP1;ratioP1;P2;durP2;ratioP2
72205;SDS011;60111;48.286;7.812;2023-05-10T00:00:18;2.75;;;0.98;;
72205;SDS011;60111;48.286;7.812;2023-05-10T00:02:52;3.15;;;1.10;;
72205;SDS011;60111;48.286;7.812;2023-05-10T00:05:26;1.42;;;0.90;;
72205;SDS011;60111;48.286;7.812;2023-05-10T00:07:58;3.73;;;0.93;;
72205;SDS011;60111;48.286;7.812;2023-05-10T00:10:31;0.90;;;0.90;;
72205;SDS011;60111;48.286;7.812;2023-05-10T00:13:03;1.12;;;1.00;;
72205;SDS011;60111;48.286;7.812;2023-05-10T00:15:36;0.70;;;0.70;;
72205;SDS011;60111;48.286;7.812;2023-05-10T00:18:08;1.65;;;0.80;;
72205;SDS011;60111;48.286;7.812;2023-05-10T00:20:41;1.12;;;0.98;;
72205;SDS011;60111;48.286;7.812;2023-05-10T00:23:16;0.80;;;0.80;;
72205;SDS011;60111;48.286;7.812;2023-05-10T00:25:48;3.87;;;1.07;;
72205;SDS011;60111;48.286;7.812;2023-05-10T00:28:21;1.17;;;1.02;;
72205;SDS011;60111;48.286;7.812;2023-05-10T00:30:53;1.95;;;0.90;;
72205;SDS011;60111;48.286;7.812;2023-05-10T00:33:26;0.90;;;0.90;;
72205;SDS011;60111;48.286;7.812;2023-05-10T00:35:59;0.90;;;0.90;;
72205;SDS011;60111;48.286;7.812;2023-05-10T00:38:31;1.92;;;1.20;;
72205;SDS011;60111;48.286;7.812;2023-05-10T00:41:04;1.00;;;0.90;;
72205;SDS011;60111;48.286;7.812;2023-05-10T00:43:37;2.33;;;1.25;;
72205;SDS011;60111;48.286;7.812;2023-05-10T00:46:09;1.40;;;0.80;;
72205;SDS011;60111;48.286;7.812;2023-05-10T00:48:43;1.00;;;0.90;;
72205;SDS011;60111;48.286;7.812;2023-05-10T00:51:16;1.02;;;0.85;;
72205;SDS011;60111;48.286;7.812;2023-05-10T00:53:49;1.35;;;0.90;;
72205;SDS011;60111;48.286;7.812;2023-05-10T00:56:22;0.70;;;0.70;;
72205;SDS011;60111;48.286;7.812;2023-05-10T00:58:56;4.20;;;0.90;;
72205;SDS011;60111;48.286;7.812;2023-05-10T01:01:29;1.67;;;0.90;;
72205;SDS011;60111;48.286;7.812;2023-05-10T01:04:02;1.27;;;0.80;;
72205;SDS011;60111;48.286;7.812;2023-05-10T01:06:35;1.42;;;0.85;;
72205;SDS011;60111;48.286;7.812;2023-05-10T01:09:08;1.10;;;0.85;;
72205;SDS011;60111;48.286;7.812;2023-05-10T01:11:42;2.02;;;1.02;;
72205;SDS011;60111;48.286;7.812;2023-05-10T01:14:15;5.30;;;1.07;;
72205;SDS011;60111;48.286;7.812;2023-05-10T01:16:50;1.67;;;0.80;;
72205;SDS011;60111;48.286;7.812;2023-05-10T01:19:25;1.50;;;0.93;;
72205;SDS011;60111;48.286;7.812;2023-05-10T01:25:11;1.42;;;1.10;;
72205;SDS011;60111;48.286;7.812;2023-05-10T01:28:07;1.82;;;1.17;;
72205;SDS011;60111;48.286;7.812;2023-05-10T01:34:02;0.88;;;0.88;;
72205;SDS011;60111;48.286;7.812;2023-05-10T01:40:10;1.25;;;1.02;;
72205;SDS011;60111;48.286;7.812;2023-05-10T01:42:20;2.10;;;1.35;;
72205;SDS011;60111;48.286;7.812;2023-05-10T01:45:04;2.35;;;1.10;;
72205;SDS011;60111;48.286;7.812;2023-05-10T01:47:42;3.10;;;1.10;;
72205;SDS011;60111;48.286;7.812;2023-05-10T01:50:27;4.55;;;1.15;;
72205;SDS011;60111;48.286;7.812;2023-05-10T01:55:53;3.20;;;1.07;;
72205;SDS011;60111;48.286;7.812;2023-05-10T01:58:28;1.37;;;1.27;;
72205;SDS011;60111;48.286;7.812;2023-05-10T02:01:03;3.37;;;1.07;;
72205;SDS011;60111;48.286;7.812;2023-05-10T02:03:37;2.23;;;0.90;;
72205;SDS011;60111;48.286;7.812;2023-05-10T02:06:12;3.00;;;1.27;;
72205;SDS011;60111;48.286;7.812;2023-05-10T02:08:48;4.53;;;1.20;;
72205;SDS011;60111;48.286;7.812;2023-05-10T02:11:22;4.20;;;1.30;;
72205;SDS011;60111;48.286;7.812;2023-05-10T02:13:57;1.35;;;1.17;;
72205;SDS011;60111;48.286;7.812;2023-05-10T02:16:30;0.90;;;0.70;;
72205;SDS011;60111;48.286;7.812;2023-05-10T02:19:03;4.73;;;1.30;;
72205;SDS011;60111;48.286;7.812;2023-05-10T02:21:39;3.20;;;1.20;;
72205;SDS011;60111;48.286;7.812;2023-05-10T02:24:13;2.30;;;1.10;;
72205;SDS011;60111;48.286;7.812;2023-05-10T02:26:47;3.77;;;1.50;;
72205;SDS011;60111;48.286;7.812;2023-05-10T02:29:23;2.73;;;1.10;;
72205;SDS011;60111;48.286;7.812;2023-05-10T02:31:56;5.10;;;1.30;;
72205;SDS011;60111;48.286;7.812;2023-05-10T02:34:30;1.70;;;1.00;;
72205;SDS011;60111;48.286;7.812;2023-05-10T02:37:03;1.57;;;1.30;;
72205;SDS011;60111;48.286;7.812;2023-05-10T02:39:37;8.25;;;1.45;;
72205;SDS011;60111;48.286;7.812;2023-05-10T02:42:13;3.50;;;1.20;;
72205;SDS011;60111;48.286;7.812;2023-05-10T02:44:48;1.37;;;1.10;;
72205;SDS011;60111;48.286;7.812;2023-05-10T02:47:23;5.80;;;1.25;;
72205;SDS011;60111;48.286;7.812;2023-05-10T02:49:56;3.45;;;1.05;;
72205;SDS011;60111;48.286;7.812;2023-05-10T02:52:30;3.05;;;1.17;;
72205;SDS011;60111;48.286;7.812;2023-05-10T02:55:05;3.12;;;1.40;;
72205;SDS011;60111;48.286;7.812;2023-05-10T02:57:41;1.10;;;1.00;;
72205;SDS011;60111;48.286;7.812;2023-05-10T03:00:17;1.77;;;1.20;;
72205;SDS011;60111;48.286;7.812;2023-05-10T03:02:50;3.10;;;1.45;;
72205;SDS011;60111;48.286;7.812;2023-05-10T03:05:22;1.87;;;1.10;;
72205;SDS011;60111;48.286;7.812;2023-05-10T03:07:55;4.55;;;1.60;;
72205;SDS011;60111;48.286;7.812;2023-05-10T03:10:29;3.17;;;1.40;;
72205;SDS011;60111;48.286;7.812;2023-05-10T03:13:21;2.80;;;1.35;;
72205;SDS011;60111;48.286;7.812;2023-05-10T03:15:58;2.40;;;1.45;;
72205;SDS011;60111;48.286;7.812;2023-05-10T03:21:11;10.48;;;1.47;;
72205;SDS011;60111;48.286;7.812;2023-05-10T03:23:50;3.30;;;1.57;;
72205;SDS011;60111;48.286;7.812;2023-05-10T03:26:31;2.83;;;1.33;;
72205;SDS011;60111;48.286;7.812;2023-05-10T03:29:05;2.33;;;1.60;;
72205;SDS011;60111;48.286;7.812;2023-05-10T03:31:40;2.10;;;1.25;;
72205;SDS011;60111;48.286;7.812;2023-05-10T03:34:12;9.68;;;1.67;;
72205;SDS011;60111;48.286;7.812;2023-05-10T03:36:46;1.57;;;1.20;;
72205;SDS011;60111;48.286;7.812;2023-05-10T03:39:19;1.57;;;1.22;;
72205;SDS011;60111;48.286;7.812;2023-05-10T03:41:52;1.95;;;1.40;;
72205;SDS011;60111;48.286;7.812;2023-05-10T03:44:24;2.65;;;1.30;;
72205;SDS011;60111;48.286;7.812;2023-05-10T03:46:57;2.35;;;1.22;;
72205;SDS011;60111;48.286;7.812;2023-05-10T03:49:29;3.45;;;1.80;;
72205;SDS011;60111;48.286;7.812;2023-05-10T03:52:02;4.12;;;1.87;;
72205;SDS011;60111;48.286;7.812;2023-05-10T03:54:36;2.40;;;1.63;;
72205;SDS011;60111;48.286;7.812;2023-05-10T03:57:08;6.05;;;1.90;;
72205;SDS011;60111;48.286;7.812;2023-05-10T03:59:41;5.90;;;1.77;;
72205;SDS011;60111;48.286;7.812;2023-05-10T04:02:13;2.27;;;1.90;;
72205;SDS011;60111;48.286;7.812;2023-05-10T04:04:46;5.50;;;1.72;;
72205;SDS011;60111;48.286;7.812;2023-05-10T04:07:19;4.27;;;1.73;;
72205;SDS011;60111;48.286;7.812;2023-05-10T04:09:51;3.27;;;1.62;;
72205;SDS011;60111;48.286;7.812;2023-05-10T04:12:24;3.87;;;1.70;;
72205;SDS011;60111;48.286;7.812;2023-05-10T04:14:59;2.12;;;1.75;;
72205;SDS011;60111;48.286;7.812;2023-05-10T04:17:32;1.47;;;1.37;;
72205;SDS011;60111;48.286;7.812;2023-05-10T04:20:05;1.72;;;1.50;;
72205;SDS011;60111;48.286;7.812;2023-05-10T04:25:11;2.55;;;2.00;;
72205;SDS011;60111;48.286;7.812;2023-05-10T04:27:44;3.10;;;2.00;;
72205;SDS011;60111;48.286;7.812;2023-05-10T04:30:16;1.70;;;1.60;;
72205;SDS011;60111;48.286;7.812;2023-05-10T04:32:49;3.95;;;2.05;;
72205;SDS011;60111;48.286;7.812;2023-05-10T04:35:21;3.35;;;1.80;;
72205;SDS011;60111;48.286;7.812;2023-05-10T04:37:54;3.45;;;1.60;;
72205;SDS011;60111;48.286;7.812;2023-05-10T04:40:27;3.22;;;1.80;;
72205;SDS011;60111;48.286;7.812;2023-05-10T04:42:59;4.25;;;1.60;;
72205;SDS011;60111;48.286;7.812;2023-05-10T04:45:32;4.72;;;2.00;;
72205;SDS011;60111;48.286;7.812;2023-05-10T04:48:05;1.60;;;1.50;;
72205;SDS011;60111;48.286;7.812;2023-05-10T04:50:38;2.33;;;1.90;;
72205;SDS011;60111;48.286;7.812;2023-05-10T04:53:11;6.20;;;1.80;;
72205;SDS011;60111;48.286;7.812;2023-05-10T04:55:44;2.67;;;1.70;;
72205;SDS011;60111;48.286;7.812;2023-05-10T04:58:17;1.50;;;1.40;;
72205;SDS011;60111;48.286;7.812;2023-05-10T05:00:50;3.07;;;2.07;;
72205;SDS011;60111;48.286;7.812;2023-05-10T05:03:22;5.22;;;1.70;;
72205;SDS011;60111;48.286;7.812;2023-05-10T05:05:55;3.40;;;1.90;;
72205;SDS011;60111;48.286;7.812;2023-05-10T05:08:27;6.37;;;1.90;;
72205;SDS011;60111;48.286;7.812;2023-05-10T05:11:00;2.60;;;1.82;;
72205;SDS011;60111;48.286;7.812;2023-05-10T05:13:33;3.45;;;1.70;;
72205;SDS011;60111;48.286;7.812;2023-05-10T05:16:05;2.17;;;1.50;;
72205;SDS011;60111;48.286;7.812;2023-05-10T05:18:38;2.22;;;1.80;;
72205;SDS011;60111;48.286;7.812;2023-05-10T05:21:17;5.07;;;1.90;;
72205;SDS011;60111;48.286;7.812;2023-05-10T05:23:51;1.90;;;1.60;;
72205;SDS011;60111;48.286;7.812;2023-05-10T05:26:23;1.85;;;1.60;;
72205;SDS011;60111;48.286;7.812;2023-05-10T05:28:57;5.40;;;1.85;;
72205;SDS011;60111;48.286;7.812;2023-05-10T05:31:29;2.60;;;1.60;;
72205;SDS011;60111;48.286;7.812;2023-05-10T05:34:02;3.75;;;2.08;;
72205;SDS011;60111;48.286;7.812;2023-05-10T05:36:35;1.67;;;1.40;;
72205;SDS011;60111;48.286;7.812;2023-05-10T05:39:10;3.58;;;1.55;;
72205;SDS011;60111;48.286;7.812;2023-05-10T05:41:42;3.52;;;1.82;;
72205;SDS011;60111;48.286;7.812;2023-05-10T05:44:17;2.58;;;1.40;;
72205;SDS011;60111;48.286;7.812;2023-05-10T05:46:51;1.22;;;1.20;;
72205;SDS011;60111;48.286;7.812;2023-05-10T05:49:23;1.35;;;1.25;;
72205;SDS011;60111;48.286;7.812;2023-05-10T05:52:03;2.53;;;1.40;;
72205;SDS011;60111;48.286;7.812;2023-05-10T05:54:36;3.05;;;1.55;;
72205;SDS011;60111;48.286;7.812;2023-05-10T05:57:08;4.30;;;1.50;;
72205;SDS011;60111;48.286;7.812;2023-05-10T05:59:41;2.53;;;1.67;;
72205;SDS011;60111;48.286;7.812;2023-05-10T06:02:14;2.47;;;1.45;;
72205;SDS011;60111;48.286;7.812;2023-05-10T06:04:47;5.63;;;1.80;;
72205;SDS011;60111;48.286;7.812;2023-05-10T06:07:19;2.80;;;1.55;;
72205;SDS011;60111;48.286;7.812;2023-05-10T06:09:52;4.80;;;1.50;;
72205;SDS011;60111;48.286;7.812;2023-05-10T06:12:25;2.87;;;1.60;;
72205;SDS011;60111;48.286;7.812;2023-05-10T06:14:57;3.75;;;1.90;;
72205;SDS011;60111;48.286;7.812;2023-05-10T06:17:30;2.25;;;1.80;;
72205;SDS011;60111;48.286;7.812;2023-05-10T06:20:02;2.85;;;1.60;;
72205;SDS011;60111;48.286;7.812;2023-05-10T06:22:35;2.10;;;1.65;;
72205;SDS011;60111;48.286;7.812;2023-05-10T06:25:08;1.60;;;1.50;;
72205;SDS011;60111;48.286;7.812;2023-05-10T06:27:42;3.77;;;1.75;;
72205;SDS011;60111;48.286;7.812;2023-05-10T06:30:14;2.62;;;1.92;;
72205;SDS011;60111;48.286;7.812;2023-05-10T06:32:47;4.53;;;1.90;;
72205;SDS011;60111;48.286;7.812;2023-05-10T06:35:20;3.75;;;1.90;;
72205;SDS011;60111;48.286;7.812;2023-05-10T06:37:52;3.35;;;1.80;;
72205;SDS011;60111;48.286;7.812;2023-05-10T06:40:25;4.70;;;1.80;;
72205;SDS011;60111;48.286;7.812;2023-05-10T06:42:58;4.00;;;1.70;;
72205;SDS011;60111;48.286;7.812;2023-05-10T06:45:30;4.80;;;2.00;;
72205;SDS011;60111;48.286;7.812;2023-05-10T06:48:03;3.73;;;1.87;;
72205;SDS011;60111;48.286;7.812;2023-05-10T06:50:36;2.25;;;2.05;;
72205;SDS011;60111;48.286;7.812;2023-05-10T06:53:08;3.22;;;2.12;;
72205;SDS011;60111;48.286;7.812;2023-05-10T06:55:41;3.45;;;1.70;;
72205;SDS011;60111;48.286;7.812;2023-05-10T06:58:13;5.30;;;2.33;;
72205;SDS011;60111;48.286;7.812;2023-05-10T07:00:46;3.90;;;2.10;;
72205;SDS011;60111;48.286;7.812;2023-05-10T07:03:19;3.05;;;2.05;;
72205;SDS011;60111;48.286;7.812;2023-05-10T07:05:51;6.72;;;2.40;;
72205;SDS011;60111;48.286;7.812;2023-05-10T07:08:25;3.75;;;2.02;;
72205;SDS011;60111;48.286;7.812;2023-05-10T07:11:01;5.50;;;1.87;;
72205;SDS011;60111;48.286;7.812;2023-05-10T07:13:35;3.92;;;1.90;;
72205;SDS011;60111;48.286;7.812;2023-05-10T07:16:09;2.77;;;1.60;;
72205;SDS011;60111;48.286;7.812;2023-05-10T07:21:15;1.82;;;1.50;;
72205;SDS011;60111;48.286;7.812;2023-05-10T07:23:48;2.52;;;1.57;;
72205;SDS011;60111;48.286;7.812;2023-05-10T07:26:21;3.02;;;1.50;;
72205;SDS011;60111;48.286;7.812;2023-05-10T07:28:53;3.30;;;1.52;;
72205;SDS011;60111;48.286;7.812;2023-05-10T07:31:27;1.40;;;1.25;;
72205;SDS011;60111;48.286;7.812;2023-05-10T07:33:59;1.80;;;1.33;;
72205;SDS011;60111;48.286;7.812;2023-05-10T07:36:32;1.50;;;1.40;;
72205;SDS011;60111;48.286;7.812;2023-05-10T07:39:04;2.35;;;1.15;;
72205;SDS011;60111;48.286;7.812;2023-05-10T07:41:37;1.40;;;1.23;;
72205;SDS011;60111;48.286;7.812;2023-05-10T07:44:10;2.70;;;1.20;;
72205;SDS011;60111;48.286;7.812;2023-05-10T07:46:42;1.02;;;1.00;;
72205;SDS011;60111;48.286;7.812;2023-05-10T07:49:15;2.87;;;1.50;;
72205;SDS011;60111;48.286;7.812;2023-05-10T07:51:48;1.32;;;1.00;;
72205;SDS011;60111;48.286;7.812;2023-05-10T07:54:20;2.27;;;1.07;;
72205;SDS011;60111;48.286;7.812;2023-05-10T07:56:53;1.73;;;1.07;;
72205;SDS011;60111;48.286;7.812;2023-05-10T07:59:25;1.00;;;1.00;;
72205;SDS011;60111;48.286;7.812;2023-05-10T08:01:58;1.87;;;1.10;;
72205;SDS011;60111;48.286;7.812;2023-05-10T08:04:31;1.22;;;0.80;;
72205;SDS011;60111;48.286;7.812;2023-05-10T08:07:04;1.32;;;0.98;;
72205;SDS011;60111;48.286;7.812;2023-05-10T08:09:36;1.43;;;1.20;;
72205;SDS011;60111;48.286;7.812;2023-05-10T08:12:09;1.92;;;0.90;;
72205;SDS011;60111;48.286;7.812;2023-05-10T08:14:41;1.22;;;0.93;;
72205;SDS011;60111;48.286;7.812;2023-05-10T08:17:14;0.70;;;0.70;;
72205;SDS011;60111;48.286;7.812;2023-05-10T08:19:46;0.90;;;0.80;;
72205;SDS011;60111;48.286;7.812;2023-05-10T08:22:19;1.90;;;0.85;;
72205;SDS011;60111;48.286;7.812;2023-05-10T08:24:52;2.12;;;0.60;;
72205;SDS011;60111;48.286;7.812;2023-05-10T08:27:24;1.52;;;0.88;;
72205;SDS011;60111;48.286;7.812;2023-05-10T08:29:57;2.95;;;1.02;;
72205;SDS011;60111;48.286;7.812;2023-05-10T08:32:30;2.52;;;0.90;;
72205;SDS011;60111;48.286;7.812;2023-05-10T08:35:02;2.00;;;0.88;;
72205;SDS011;60111;48.286;7.812;2023-05-10T08:37:35;2.60;;;0.80;;
72205;SDS011;60111;48.286;7.812;2023-05-10T08:40:08;3.20;;;1.10;;
72205;SDS011;60111;48.286;7.812;2023-05-10T08:42:43;2.52;;;0.98;;
72205;SDS011;60111;48.286;7.812;2023-05-10T08:45:18;1.45;;;0.78;;
72205;SDS011;60111;48.286;7.812;2023-05-10T08:47:53;2.25;;;0.75;;
72205;SDS011;60111;48.286;7.812;2023-05-10T08:50:27;0.50;;;0.50;;
72205;SDS011;60111;48.286;7.812;2023-05-10T08:53:02;0.97;;;0.57;;
72205;SDS011;60111;48.286;7.812;2023-05-10T08:55:37;2.35;;;0.60;;
72205;SDS011;60111;48.286;7.812;2023-05-10T08:58:12;2.40;;;0.85;;
72205;SDS011;60111;48.286;7.812;2023-05-10T09:00:45;2.55;;;0.68;;
72205;SDS011;60111;48.286;7.812;2023-05-10T09:03:18;2.00;;;0.80;;
72205;SDS011;60111;48.286;7.812;2023-05-10T09:05:51;3.87;;;1.00;;
72205;SDS011;60111;48.286;7.812;2023-05-10T09:08:24;1.85;;;0.90;;
72205;SDS011;60111;48.286;7.812;2023-05-10T09:10:57;1.00;;;0.80;;
72205;SDS011;60111;48.286;7.812;2023-05-10T09:16:04;2.05;;;0.75;;
72205;SDS011;60111;48.286;7.812;2023-05-10T09:18:37;1.90;;;0.90;;
72205;SDS011;60111;48.286;7.812;2023-05-10T09:21:09;1.32;;;0.90;;
72205;SDS011;60111;48.286;7.812;2023-05-10T09:23:43;2.42;;;0.80;;
72205;SDS011;60111;48.286;7.812;2023-05-10T09:26:17;2.77;;;0.90;;
72205;SDS011;60111;48.286;7.812;2023-05-10T09:28:57;3.43;;;0.90;;
72205;SDS011;60111;48.286;7.812;2023-05-10T09:31:48;1.40;;;0.80;;
72205;SDS011;60111;48.286;7.812;2023-05-10T09:34:19;1.72;;;0.65;;
72205;SDS011;60111;48.286;7.812;2023-05-10T09:36:54;1.22;;;0.78;;
72205;SDS011;60111;48.286;7.812;2023-05-10T09:39:31;4.45;;;0.90;;
72205;SDS011;60111;48.286;7.812;2023-05-10T09:42:06;2.00;;;0.77;;
72205;SDS011;60111;48.286;7.812;2023-05-10T09:44:42;1.27;;;0.70;;
72205;SDS011;60111;48.286;7.812;2023-05-10T09:47:19;1.10;;;0.50;;
72205;SDS011;60111;48.286;7.812;2023-05-10T09:49:52;5.63;;;0.80;;
72205;SDS011;60111;48.286;7.812;2023-05-10T09:52:27;2.30;;;0.70;;
72205;SDS011;60111;48.286;7.812;2023-05-10T09:55:00;2.20;;;0.70;;
72205;SDS011;60111;48.286;7.812;2023-05-10T09:57:33;0.90;;;0.60;;
72205;SDS011;60111;48.286;7.812;2023-05-10T10:00:06;2.45;;;0.72;;
72205;SDS011;60111;48.286;7.812;2023-05-10T10:02:40;1.98;;;0.70;;
72205;SDS011;60111;48.286;7.812;2023-05-10T10:05:13;0.57;;;0.57;;
72205;SDS011;60111;48.286;7.812;2023-05-10T10:07:46;4.60;;;0.57;;
72205;SDS011;60111;48.286;7.812;2023-05-10T10:12:54;1.92;;;0.65;;
72205;SDS011;60111;48.286;7.812;2023-05-10T10:15:27;3.55;;;0.80;;
72205;SDS011;60111;48.286;7.812;2023-05-10T10:18:00;1.07;;;0.53;;
72205;SDS011;60111;48.286;7.812;2023-05-10T10:20:35;2.03;;;0.93;;
72205;SDS011;60111;48.286;7.812;2023-05-10T10:23:09;1.27;;;0.57;;
72205;SDS011;60111;48.286;7.812;2023-05-10T10:25:41;0.60;;;0.50;;
72205;SDS011;60111;48.286;7.812;2023-05-10T10:28:23;1.80;;;0.67;;
72205;SDS011;60111;48.286;7.812;2023-05-10T10:30:59;1.42;;;0.60;;
72205;SDS011;60111;48.286;7.812;2023-05-10T10:36:47;2.05;;;0.82;;
72205;SDS011;60111;48.286;7.812;2023-05-10T10:39:20;2.45;;;0.70;;
72205;SDS011;60111;48.286;7.812;2023-05-10T10:41:56;1.55;;;0.60;;
72205;SDS011;60111;48.286;7.812;2023-05-10T10:49:50;1.30;;;0.70;;
72205;SDS011;60111;48.286;7.812;2023-05-10T10:52:32;1.62;;;0.70;;
72205;SDS011;60111;48.286;7.812;2023-05-10T10:55:07;3.02;;;0.70;;
72205;SDS011;60111;48.286;7.812;2023-05-10T11:00:28;1.90;;;0.72;;
72205;SDS011;60111;48.286;7.812;2023-05-10T11:03:05;1.27;;;0.70;;
72205;SDS011;60111;48.286;7.812;2023-05-10T11:05:47;2.70;;;0.50;;
72205;SDS011;60111;48.286;7.812;2023-05-10T11:08:28;3.27;;;0.97;;
72205;SDS011;60111;48.286;7.812;2023-05-10T11:11:03;3.05;;;0.60;;
72205;SDS011;60111;48.286;7.812;2023-05-10T11:13:43;1.30;;;0.60;;
72205;SDS011;60111;48.286;7.812;2023-05-10T11:16:19;0.98;;;0.50;;
72205;SDS011;60111;48.286;7.812;2023-05-10T11:19:02;0.90;;;0.57;;
72205;SDS011;60111;48.286;7.812;2023-05-10T11:21:44;0.78;;;0.60;;
72205;SDS011;60111;48.286;7.812;2023-05-10T11:24:22;3.05;;;0.70;;
72205;SDS011;60111;48.286;7.812;2023-05-10T11:29:26;2.10;;;0.55;;
72205;SDS011;60111;48.286;7.812;2023-05-10T11:31:59;1.70;;;0.60;;
72205;SDS011;60111;48.286;7.812;2023-05-10T11:34:32;0.73;;;0.60;;
72205;SDS011;60111;48.286;7.812;2023-05-10T11:37:04;2.22;;;0.70;;
72205;SDS011;60111;48.286;7.812;2023-05-10T11:39:37;2.60;;;0.50;;
72205;SDS011;60111;48.286;7.812;2023-05-10T11:42:09;1.70;;;0.60;;
72205;SDS011;60111;48.286;7.812;2023-05-10T11:44:45;2.47;;;0.50;;
72205;SDS011;60111;48.286;7.812;2023-05-10T11:47:20;0.88;;;0.70;;
72205;SDS011;60111;48.286;7.812;2023-05-10T11:49:53;0.65;;;0.53;;
72205;SDS011;60111;48.286;7.812;2023-05-10T11:52:25;2.00;;;0.65;;
72205;SDS011;60111;48.286;7.812;2023-05-10T11:54:58;2.33;;;0.50;;
72205;SDS011;60111;48.286;7.812;2023-05-10T11:57:31;0.75;;;0.50;;
72205;SDS011;60111;48.286;7.812;2023-05-10T12:00:04;0.50;;;0.40;;
72205;SDS011;60111;48.286;7.812;2023-05-10T12:02:38;1.22;;;0.68;;
72205;SDS011;60111;48.286;7.812;2023-05-10T12:05:11;2.12;;;0.50;;
72205;SDS011;60111;48.286;7.812;2023-05-10T12:07:44;1.50;;;0.55;;
72205;SDS011;60111;48.286;7.812;2023-05-10T12:10:17;0.95;;;0.60;;
72205;SDS011;60111;48.286;7.812;2023-05-10T12:12:52;0.60;;;0.60;;
72205;SDS011;60111;48.286;7.812;2023-05-10T12:15:25;1.27;;;0.60;;
72205;SDS011;60111;48.286;7.812;2023-05-10T12:17:59;2.20;;;0.60;;
72205;SDS011;60111;48.286;7.812;2023-05-10T12:20:32;1.52;;;0.60;;
72205;SDS011;60111;48.286;7.812;2023-05-10T12:23:04;3.27;;;0.83;;
72205;SDS011;60111;48.286;7.812;2023-05-10T12:25:39;1.07;;;0.57;;
72205;SDS011;60111;48.286;7.812;2023-05-10T12:28:12;2.17;;;0.70;;
72205;SDS011;60111;48.286;7.812;2023-05-10T12:30:44;1.25;;;0.60;;
72205;SDS011;60111;48.286;7.812;2023-05-10T12:33:17;2.98;;;0.70;;
72205;SDS011;60111;48.286;7.812;2023-05-10T12:35:50;2.10;;;0.88;;
72205;SDS011;60111;48.286;7.812;2023-05-10T12:41:06;1.02;;;0.60;;
72205;SDS011;60111;48.286;7.812;2023-05-10T12:43:41;0.93;;;0.57;;
72205;SDS011;60111;48.286;7.812;2023-05-10T12:46:14;4.55;;;0.70;;
72205;SDS011;60111;48.286;7.812;2023-05-10T12:48:48;1.60;;;0.62;;
72205;SDS011;60111;48.286;7.812;2023-05-10T12:51:22;0.65;;;0.60;;
72205;SDS011;60111;48.286;7.812;2023-05-10T12:53:55;1.50;;;0.50;;
72205;SDS011;60111;48.286;7.812;2023-05-10T12:56:27;4.20;;;0.65;;
72205;SDS011;60111;48.286;7.812;2023-05-10T12:59:00;2.40;;;0.80;;
72205;SDS011;60111;48.286;7.812;2023-05-10T13:01:32;4.30;;;0.60;;
72205;SDS011;60111;48.286;7.812;2023-05-10T13:04:05;1.75;;;0.60;;
72205;SDS011;60111;48.286;7.812;2023-05-10T13:06:38;2.37;;;0.72;;
72205;SDS011;60111;48.286;7.812;2023-05-10T13:09:10;2.65;;;0.80;;
72205;SDS011;60111;48.286;7.812;2023-05-10T13:11:43;1.15;;;0.50;;
72205;SDS011;60111;48.286;7.812;2023-05-10T13:14:16;1.62;;;0.62;;
72205;SDS011;60111;48.286;7.812;2023-05-10T13:16:50;2.22;;;0.60;;
72205;SDS011;60111;48.286;7.812;2023-05-10T13:19:23;1.57;;;0.50;;
72205;SDS011;60111;48.286;7.812;2023-05-10T13:21:55;1.95;;;0.62;;
72205;SDS011;60111;48.286;7.812;2023-05-10T13:24:28;1.03;;;0.40;;
72205;SDS011;60111;48.286;7.812;2023-05-10T13:27:01;4.55;;;0.70;;
72205;SDS011;60111;48.286;7.812;2023-05-10T13:29:33;1.13;;;0.73;;
72205;SDS011;60111;48.286;7.812;2023-05-10T13:32:06;2.00;;;0.50;;
72205;SDS011;60111;48.286;7.812;2023-05-10T13:34:39;1.55;;;0.57;;
72205;SDS011;60111;48.286;7.812;2023-05-10T13:37:12;1.95;;;0.60;;
72205;SDS011;60111;48.286;7.812;2023-05-10T13:39:45;0.95;;;0.50;;
72205;SDS011;60111;48.286;7.812;2023-05-10T13:42:17;0.80;;;0.57;;
72205;SDS011;60111;48.286;7.812;2023-05-10T13:44:50;3.40;;;0.68;;
72205;SDS011;60111;48.286;7.812;2023-05-10T13:47:24;0.72;;;0.30;;
72205;SDS011;60111;48.286;7.812;2023-05-10T13:49:57;1.40;;;0.57;;
72205;SDS011;60111;48.286;7.812;2023-05-10T13:52:29;1.62;;;0.45;;
72205;SDS011;60111;48.286;7.812;2023-05-10T13:55:02;2.45;;;0.62;;
72205;SDS011;60111;48.286;7.812;2023-05-10T13:57:34;3.25;;;0.60;;
72205;SDS011;60111;48.286;7.812;2023-05-10T14:00:07;1.37;;;0.50;;
72205;SDS011;60111;48.286;7.812;2023-05-10T14:02:40;1.15;;;0.50;;
72205;SDS011;60111;48.286;7.812;2023-05-10T14:05:13;1.47;;;0.65;;
72205;SDS011;60111;48.286;7.812;2023-05-10T14:07:46;0.85;;;0.55;;
72205;SDS011;60111;48.286;7.812;2023-05-10T14:10:18;5.05;;;0.82;;
72205;SDS011;60111;48.286;7.812;2023-05-10T14:12:51;0.85;;;0.55;;
72205;SDS011;60111;48.286;7.812;2023-05-10T14:15:23;2.33;;;0.40;;
72205;SDS011;60111;48.286;7.812;2023-05-10T14:17:56;4.72;;;0.57;;
72205;SDS011;60111;48.286;7.812;2023-05-10T14:20:29;2.92;;;0.70;;
72205;SDS011;60111;48.286;7.812;2023-05-10T14:23:02;1.45;;;0.30;;
72205;SDS011;60111;48.286;7.812;2023-05-10T14:25:35;1.17;;;0.40;;
72205;SDS011;60111;48.286;7.812;2023-05-10T14:28:09;0.83;;;0.50;;
72205;SDS011;60111;48.286;7.812;2023-05-10T14:30:43;0.60;;;0.40;;
72205;SDS011;60111;48.286;7.812;2023-05-10T14:33:16;1.67;;;0.57;;
72205;SDS011;60111;48.286;7.812;2023-05-10T14:35:50;1.77;;;0.33;;
72205;SDS011;60111;48.286;7.812;2023-05-10T14:38:23;1.25;;;0.35;;
72205;SDS011;60111;48.286;7.812;2023-05-10T14:40:55;3.17;;;0.73;;
72205;SDS011;60111;48.286;7.812;2023-05-10T14:43:28;2.07;;;0.57;;
72205;SDS011;60111;48.286;7.812;2023-05-10T14:46:01;1.50;;;0.40;;
72205;SDS011;60111;48.286;7.812;2023-05-10T14:48:33;1.02;;;0.40;;
72205;SDS011;60111;48.286;7.812;2023-05-10T14:51:06;0.73;;;0.30;;
72205;SDS011;60111;48.286;7.812;2023-05-10T14:53:39;1.67;;;0.47;;
72205;SDS011;60111;48.286;7.812;2023-05-10T14:56:11;0.50;;;0.30;;
72205;SDS011;60111;48.286;7.812;2023-05-10T14:58:44;0.70;;;0.60;;
72205;SDS011;60111;48.286;7.812;2023-05-10T15:01:16;2.80;;;0.60;;
72205;SDS011;60111;48.286;7.812;2023-05-10T15:03:49;2.43;;;0.70;;
72205;SDS011;60111;48.286;7.812;2023-05-10T15:06:30;5.20;;;0.60;;
72205;SDS011;60111;48.286;7.812;2023-05-10T15:08:57;2.52;;;1.05;;
72205;SDS011;60111;48.286;7.812;2023-05-10T15:11:30;4.75;;;1.10;;
72205;SDS011;60111;48.286;7.812;2023-05-10T15:14:03;9.15;;;4.85;;
72205;SDS011;60111;48.286;7.812;2023-05-10T15:16:37;3.12;;;0.90;;
72205;SDS011;60111;48.286;7.812;2023-05-10T15:19:10;1.70;;;0.85;;
72205;SDS011;60111;48.286;7.812;2023-05-10T15:21:43;2.47;;;0.70;;
72205;SDS011;60111;48.286;7.812;2023-05-10T15:24:16;1.75;;;0.78;;
72205;SDS011;60111;48.286;7.812;2023-05-10T15:26:49;2.08;;;0.70;;
72205;SDS011;60111;48.286;7.812;2023-05-10T15:29:21;3.77;;;1.40;;
72205;SDS011;60111;48.286;7.812;2023-05-10T15:31:54;2.10;;;1.00;;
72205;SDS011;60111;48.286;7.812;2023-05-10T15:34:27;3.45;;;1.00;;
72205;SDS011;60111;48.286;7.812;2023-05-10T15:36:59;3.22;;;1.02;;
72205;SDS011;60111;48.286;7.812;2023-05-10T15:39:32;1.55;;;0.78;;
72205;SDS011;60111;48.286;7.812;2023-05-10T15:42:05;0.85;;;0.60;;
72205;SDS011;60111;48.286;7.812;2023-05-10T15:44:37;3.58;;;0.50;;
72205;SDS011;60111;48.286;7.812;2023-05-10T15:47:10;3.35;;;0.80;;
72205;SDS011;60111;48.286;7.812;2023-05-10T15:49:43;5.30;;;0.80;;
72205;SDS011;60111;48.286;7.812;2023-05-10T15:52:15;4.87;;;0.83;;
72205;SDS011;60111;48.286;7.812;2023-05-10T15:54:49;4.80;;;0.57;;
72205;SDS011;60111;48.286;7.812;2023-05-10T15:57:22;6.28;;;0.88;;
72205;SDS011;60111;48.286;7.812;2023-05-10T15:59:54;11.60;;;0.80;;
72205;SDS011;60111;48.286;7.812;2023-05-10T16:02:28;5.60;;;0.68;;
72205;SDS011;60111;48.286;7.812;2023-05-10T16:05:00;2.70;;;0.60;;
72205;SDS011;60111;48.286;7.812;2023-05-10T16:07:33;1.82;;;0.62;;